sensor_id;sensor_type;location;lat;lon;timestamp;pressure;altitude;pressure_sealevel;temperature;humidity
58775;BME280;44545;47.480;19.024;2023-06-01T03:13:52;100255.13;;;14.88;83.56
58775;BME280;44545;47.480;19.024;2023-06-01T03:16:55;100255.13;;;14.88;83.56
58775;BME280;44545;47.480;19.024;2023-06-01T03:19:57;100270.66;;;14.57;85.18
58775;BME280;44545;47.480;19.024;2023-06-01T03:23:00;100258.59;;;14.62;85.10
58775;BME280;44545;47.480;19.024;2023-06-01T03:26:03;100261.66;;;14.74;84.48
58775;BME280;44545;47.480;19.024;2023-06-01T03:29:06;100262.00;;;14.59;84.57
58775;BME280;44545;47.480;19.024;2023-06-01T03:32:09;100263.84;;;14.39;85.17
58775;BME280;44545;47.480;19.024;2023-06-01T03:35:12;100268.59;;;14.49;84.36
58775;BME280;44545;47.480;19.024;2023-06-01T03:38:15;100265.78;;;14.91;83.19
58775;BME280;44545;47.480;19.024;2023-06-01T03:41:18;100263.78;;;15.10;82.77
58775;BME280;44545;47.480;19.024;2023-06-01T03:44:21;100258.63;;;15.13;82.18
58775;BME280;44545;47.480;19.024;2023-06-01T03:47:23;100259.50;;;15.13;82.15
58775;BME280;44545;47.480;19.024;2023-06-01T03:50:27;100256.97;;;15.16;82.55
58775;BME280;44545;47.480;19.024;2023-06-01T03:53:30;100246.06;;;15.30;81.64
58775;BME280;44545;47.480;19.024;2023-06-01T03:56:33;100254.03;;;15.33;80.88
58775;BME280;44545;47.480;19.024;2023-06-01T03:59:36;100260.75;;;15.52;80.78
58775;BME280;44545;47.480;19.024;2023-06-01T04:02:38;100254.78;;;15.56;81.34
58775;BME280;44545;47.480;19.024;2023-06-01T04:05:43;100253.28;;;15.64;81.31
58775;BME280;44545;47.480;19.024;2023-06-01T04:08:51;100254.59;;;15.77;81.74
58775;BME280;44545;47.480;19.024;2023-06-01T04:12:00;100250.41;;;15.84;81.99
58775;BME280;44545;47.480;19.024;2023-06-01T04:15:05;100257.81;;;15.97;81.29
58775;BME280;44545;47.480;19.024;2023-06-01T04:18:08;100248.66;;;16.13;79.85
58775;BME280;44545;47.480;19.024;2023-06-01T04:21:12;100259.53;;;16.25;79.17
58775;BME280;44545;47.480;19.024;2023-06-01T04:24:15;100252.22;;;16.45;79.04
58775;BME280;44545;47.480;19.024;2023-06-01T04:27:18;100250.16;;;16.65;77.86
58775;BME280;44545;47.480;19.024;2023-06-01T04:30:20;100249.88;;;16.86;77.58
58775;BME280;44545;47.480;19.024;2023-06-01T04:33:25;100250.31;;;17.03;76.15
58775;BME280;44545;47.480;19.024;2023-06-01T04:36:28;100252.84;;;17.33;74.02
58775;BME280;44545;47.480;19.024;2023-06-01T04:39:34;100261.19;;;17.51;72.47
58775;BME280;44545;47.480;19.024;2023-06-01T04:42:42;100262.66;;;17.75;71.59
58775;BME280;44545;47.480;19.024;2023-06-01T04:45:52;100261.50;;;18.02;70.92
58775;BME280;44545;47.480;19.024;2023-06-01T04:48:54;100254.19;;;18.29;69.98
58775;BME280;44545;47.480;19.024;2023-06-01T04:52:02;100259.00;;;18.49;68.76
58775;BME280;44545;47.480;19.024;2023-06-01T04:55:06;100262.97;;;18.72;66.49
58775;BME280;44545;47.480;19.024;2023-06-01T04:58:09;100256.44;;;18.99;66.25
58775;BME280;44545;47.480;19.024;2023-06-01T05:01:12;100256.75;;;19.14;65.61
58775;BME280;44545;47.480;19.024;2023-06-01T05:04:17;100258.94;;;19.40;64.55
58775;BME280;44545;47.480;19.024;2023-06-01T05:07:20;100257.34;;;19.51;62.89
58775;BME280;44545;47.480;19.024;2023-06-01T05:10:23;100258.59;;;19.75;61.98
58775;BME280;44545;47.480;19.024;2023-06-01T05:13:26;100259.00;;;20.02;60.80
58775;BME280;44545;47.480;19.024;2023-06-01T05:16:28;100263.75;;;20.28;59.39
58775;BME280;44545;47.480;19.024;2023-06-01T05:19:31;100256.28;;;20.62;56.87
58775;BME280;44545;47.480;19.024;2023-06-01T05:22:33;100261.06;;;20.98;57.21
58775;BME280;44545;47.480;19.024;2023-06-01T05:25:36;100255.91;;;21.13;56.81
58775;BME280;44545;47.480;19.024;2023-06-01T05:28:38;100263.22;;;21.37;54.86
58775;BME280;44545;47.480;19.024;2023-06-01T05:31:41;100267.78;;;21.54;54.25
58775;BME280;44545;47.480;19.024;2023-06-01T05:34:43;100261.75;;;21.76;53.90
58775;BME280;44545;47.480;19.024;2023-06-01T05:37:46;100258.38;;;22.02;51.28
58775;BME280;44545;47.480;19.024;2023-06-01T05:40:49;100259.41;;;22.22;50.65
58775;BME280;44545;47.480;19.024;2023-06-01T05:43:52;100248.00;;;22.49;51.49
58775;BME280;44545;47.480;19.024;2023-06-01T05:46:55;100255.19;;;22.84;48.60
58775;BME280;44545;47.480;19.024;2023-06-01T05:49:58;100261.41;;;22.91;47.47
58775;BME280;44545;47.480;19.024;2023-06-01T05:53:02;100249.06;;;23.33;48.40
58775;BME280;44545;47.480;19.024;2023-06-01T05:56:06;100246.41;;;23.39;43.97
58775;BME280;44545;47.480;19.024;2023-06-01T05:59:09;100241.97;;;23.56;44.99
58775;BME280;44545;47.480;19.024;2023-06-01T06:02:13;100258.81;;;23.51;42.18
58775;BME280;44545;47.480;19.024;2023-06-01T06:05:15;100257.94;;;23.35;40.92
58775;BME280;44545;47.480;19.024;2023-06-01T06:08:18;100278.31;;;23.67;40.15
58775;BME280;44545;47.480;19.024;2023-06-01T06:11:21;100249.91;;;23.96;43.16
58775;BME280;44545;47.480;19.024;2023-06-01T06:14:25;100258.78;;;23.97;41.62
58775;BME280;44545;47.480;19.024;2023-06-01T06:17:27;100286.34;;;23.85;39.59
58775;BME280;44545;47.480;19.024;2023-06-01T06:20:30;100242.81;;;23.98;42.86
58775;BME280;44545;47.480;19.024;2023-06-01T06:23:32;100255.28;;;23.78;41.83
58775;BME280;44545;47.480;19.024;2023-06-01T06:26:35;100269.38;;;22.88;40.36
58775;BME280;44545;47.480;19.024;2023-06-01T06:29:38;100257.78;;;22.57;41.21
58775;BME280;44545;47.480;19.024;2023-06-01T06:32:40;100270.34;;;23.71;40.70
58775;BME280;44545;47.480;19.024;2023-06-01T06:35:43;100280.09;;;23.49;39.04
58775;BME280;44545;47.480;19.024;2023-06-01T06:38:45;100266.81;;;23.86;38.80
58775;BME280;44545;47.480;19.024;2023-06-01T06:41:49;100236.47;;;24.26;40.95
58775;BME280;44545;47.480;19.024;2023-06-01T06:44:51;100264.81;;;24.57;38.51
58775;BME280;44545;47.480;19.024;2023-06-01T06:47:54;100245.00;;;25.03;39.14
58775;BME280;44545;47.480;19.024;2023-06-01T06:50:56;100268.69;;;25.50;37.70
58775;BME280;44545;47.480;19.024;2023-06-01T06:53:59;100275.28;;;26.07;37.27
58775;BME280;44545;47.480;19.024;2023-06-01T06:57:04;100280.06;;;25.71;36.18
58775;BME280;44545;47.480;19.024;2023-06-01T07:00:07;100254.91;;;25.98;37.29
58775;BME280;44545;47.480;19.024;2023-06-01T07:03:10;100249.53;;;24.92;37.34
58775;BME280;44545;47.480;19.024;2023-06-01T07:06:13;100248.47;;;25.13;38.39
58775;BME280;44545;47.480;19.024;2023-06-01T07:09:16;100290.34;;;25.03;35.56
58775;BME280;44545;47.480;19.024;2023-06-01T07:12:18;100294.28;;;25.71;34.57
58775;BME280;44545;47.480;19.024;2023-06-01T07:15:20;100307.56;;;25.85;33.61
58775;BME280;44545;47.480;19.024;2023-06-01T07:18:24;100281.94;;;25.60;34.49
58775;BME280;44545;47.480;19.024;2023-06-01T07:21:28;100273.03;;;25.61;35.29
58775;BME280;44545;47.480;19.024;2023-06-01T07:24:31;100242.25;;;25.09;36.51
58775;BME280;44545;47.480;19.024;2023-06-01T07:27:33;100247.63;;;25.07;36.17
58775;BME280;44545;47.480;19.024;2023-06-01T07:30:42;100264.63;;;24.94;35.76
58775;BME280;44545;47.480;19.024;2023-06-01T07:33:44;100265.13;;;25.50;35.89
58775;BME280;44545;47.480;19.024;2023-06-01T07:36:48;100246.84;;;24.95;36.02
58775;BME280;44545;47.480;19.024;2023-06-01T07:39:51;100277.06;;;24.94;34.47
58775;BME280;44545;47.480;19.024;2023-06-01T07:42:53;100256.38;;;25.33;35.54
58775;BME280;44545;47.480;19.024;2023-06-01T07:45:55;100254.81;;;26.06;35.35
58775;BME280;44545;47.480;19.024;2023-06-01T07:48:59;100273.91;;;26.48;34.29
58775;BME280;44545;47.480;19.024;2023-06-01T07:52:02;100286.16;;;25.84;33.44
58775;BME280;44545;47.480;19.024;2023-06-01T07:55:05;100303.00;;;26.77;32.40
58775;BME280;44545;47.480;19.024;2023-06-01T07:58:08;100264.63;;;26.02;33.92
58775;BME280;44545;47.480;19.024;2023-06-01T08:01:11;100243.97;;;25.25;35.03
58775;BME280;44545;47.480;19.024;2023-06-01T08:04:13;100253.72;;;25.28;34.34
58775;BME280;44545;47.480;19.024;2023-06-01T08:07:16;100227.09;;;25.14;35.72
58775;BME280;44545;47.480;19.024;2023-06-01T08:10:18;100252.34;;;25.81;34.69
58775;BME280;44545;47.480;19.024;2023-06-01T08:13:21;100250.53;;;25.89;34.20
58775;BME280;44545;47.480;19.024;2023-06-01T08:16:24;100238.44;;;26.98;34.48
58775;BME280;44545;47.480;19.024;2023-06-01T08:19:29;100257.25;;;26.24;33.78
58775;BME280;44545;47.480;19.024;2023-06-01T08:22:34;100258.44;;;26.73;33.10
58775;BME280;44545;47.480;19.024;2023-06-01T08:25:37;100229.34;;;26.47;34.04
58775;BME280;44545;47.480;19.024;2023-06-01T08:28:42;100220.72;;;26.26;34.53
58775;BME280;44545;47.480;19.024;2023-06-01T08:31:54;100223.34;;;26.28;34.23
58775;BME280;44545;47.480;19.024;2023-06-01T08:34:57;100263.25;;;26.43;33.06
58775;BME280;44545;47.480;19.024;2023-06-01T08:38:00;100248.88;;;26.55;33.21
58775;BME280;44545;47.480;19.024;2023-06-01T08:41:11;100241.06;;;26.36;33.36
58775;BME280;44545;47.480;19.024;2023-06-01T08:44:14;100225.25;;;26.86;33.75
58775;BME280;44545;47.480;19.024;2023-06-01T08:47:20;100252.16;;;27.37;32.82
58775;BME280;44545;47.480;19.024;2023-06-01T08:50:26;100296.97;;;27.79;30.69
58775;BME280;44545;47.480;19.024;2023-06-01T08:53:29;100273.91;;;27.69;31.33
58775;BME280;44545;47.480;19.024;2023-06-01T08:56:33;100263.28;;;27.64;31.26
58775;BME280;44545;47.480;19.024;2023-06-01T08:59:36;100281.53;;;28.40;30.23
58775;BME280;44545;47.480;19.024;2023-06-01T09:02:38;100261.09;;;28.34;30.79
58775;BME280;44545;47.480;19.024;2023-06-01T09:05:42;100287.63;;;29.68;29.82
58775;BME280;44545;47.480;19.024;2023-06-01T09:08:48;100317.97;;;29.71;28.42
58775;BME280;44545;47.480;19.024;2023-06-01T09:12:19;100297.00;;;30.18;28.43
58775;BME280;44545;47.480;19.024;2023-06-01T09:15:22;100319.88;;;30.66;27.76
58775;BME280;44545;47.480;19.024;2023-06-01T09:18:24;100365.38;;;32.17;25.63
58775;BME280;44545;47.480;19.024;2023-06-01T09:21:27;100387.69;;;32.48;24.55
58775;BME280;44545;47.480;19.024;2023-06-01T09:24:30;100374.88;;;33.03;24.60
58775;BME280;44545;47.480;19.024;2023-06-01T09:27:47;100377.22;;;33.34;24.27
58775;BME280;44545;47.480;19.024;2023-06-01T09:30:51;100432.75;;;34.73;21.90
58775;BME280;44545;47.480;19.024;2023-06-01T09:33:59;100439.38;;;35.83;21.24
58775;BME280;44545;47.480;19.024;2023-06-01T09:37:05;100491.72;;;37.10;19.69
58775;BME280;44545;47.480;19.024;2023-06-01T09:40:19;100487.78;;;38.12;18.59
58775;BME280;44545;47.480;19.024;2023-06-01T09:43:22;100516.25;;;38.83;18.22
58775;BME280;44545;47.480;19.024;2023-06-01T09:46:25;100530.44;;;39.76;17.40
58775;BME280;44545;47.480;19.024;2023-06-01T09:49:28;100547.31;;;39.97;16.59
58775;BME280;44545;47.480;19.024;2023-06-01T09:52:31;100546.38;;;39.83;16.66
58775;BME280;44545;47.480;19.024;2023-06-01T09:55:33;100550.25;;;40.48;15.94
58775;BME280;44545;47.480;19.024;2023-06-01T09:58:37;100453.00;;;36.18;19.67
58775;BME280;44545;47.480;19.024;2023-06-01T10:01:43;100391.06;;;36.26;20.43
58775;BME280;44545;47.480;19.024;2023-06-01T10:04:52;100456.72;;;39.20;17.93
58775;BME280;44545;47.480;19.024;2023-06-01T10:07:55;100527.84;;;40.96;15.88
58775;BME280;44545;47.480;19.024;2023-06-01T10:10:58;100564.34;;;42.47;14.40
58775;BME280;44545;47.480;19.024;2023-06-01T10:14:01;100584.94;;;43.34;13.78
58775;BME280;44545;47.480;19.024;2023-06-01T10:17:05;100559.31;;;43.11;14.07
58775;BME280;44545;47.480;19.024;2023-06-01T10:20:07;100545.16;;;43.51;13.78
58775;BME280;44545;47.480;19.024;2023-06-01T10:23:11;100610.84;;;45.70;12.02
58775;BME280;44545;47.480;19.024;2023-06-01T10:26:38;100581.81;;;45.35;12.44
58775;BME280;44545;47.480;19.024;2023-06-01T10:29:42;100583.03;;;44.47;12.39
58775;BME280;44545;47.480;19.024;2023-06-01T10:32:46;100592.59;;;45.69;11.60
58775;BME280;44545;47.480;19.024;2023-06-01T10:35:51;100589.34;;;46.94;11.47
58775;BME280;44545;47.480;19.024;2023-06-01T10:39:27;100613.59;;;47.09;10.37
58775;BME280;44545;47.480;19.024;2023-06-01T10:42:37;100573.94;;;46.52;11.57
58775;BME280;44545;47.480;19.024;2023-06-01T10:45:40;100531.63;;;44.80;12.63
58775;BME280;44545;47.480;19.024;2023-06-01T10:48:55;100565.75;;;46.21;11.39
58775;BME280;44545;47.480;19.024;2023-06-01T10:52:43;100538.84;;;44.17;12.33
58775;BME280;44545;47.480;19.024;2023-06-01T10:55:25;100496.22;;;43.22;13.33
58775;BME280;44545;47.480;19.024;2023-06-01T10:58:28;100441.84;;;43.93;14.61
58775;BME280;44545;47.480;19.024;2023-06-01T11:01:31;100496.72;;;43.61;12.66
58775;BME280;44545;47.480;19.024;2023-06-01T11:04:35;100426.66;;;41.95;14.15
58775;BME280;44545;47.480;19.024;2023-06-01T11:07:39;100392.03;;;40.30;15.71
58775;BME280;44545;47.480;19.024;2023-06-01T11:14:07;100370.75;;;41.12;15.20
58775;BME280;44545;47.480;19.024;2023-06-01T11:17:29;100347.25;;;39.24;16.58
58775;BME280;44545;47.480;19.024;2023-06-01T11:20:38;100255.66;;;35.31;20.02
58775;BME280;44545;47.480;19.024;2023-06-01T11:23:42;100194.38;;;33.54;21.54
58775;BME280;44545;47.480;19.024;2023-06-01T11:26:47;100108.19;;;32.39;24.83
58775;BME280;44545;47.480;19.024;2023-06-01T11:29:49;100079.34;;;32.17;25.59
58775;BME280;44545;47.480;19.024;2023-06-01T11:32:54;100083.12;;;32.13;24.50
58775;BME280;44545;47.480;19.024;2023-06-01T11:35:59;100083.94;;;31.92;24.57
58775;BME280;44545;47.480;19.024;2023-06-01T11:39:02;100036.53;;;30.05;27.02
58775;BME280;44545;47.480;19.024;2023-06-01T11:42:20;99990.78;;;29.15;28.85
58775;BME280;44545;47.480;19.024;2023-06-01T11:45:24;99999.66;;;28.85;28.79
58775;BME280;44545;47.480;19.024;2023-06-01T11:48:28;99960.50;;;28.42;30.63
58775;BME280;44545;47.480;19.024;2023-06-01T11:51:32;99982.38;;;28.95;29.47
58775;BME280;44545;47.480;19.024;2023-06-01T11:54:35;99976.66;;;29.98;30.63
58775;BME280;44545;47.480;19.024;2023-06-01T11:57:42;100062.75;;;30.82;27.25
58775;BME280;44545;47.480;19.024;2023-06-01T12:00:45;100080.94;;;30.74;27.08
58775;BME280;44545;47.480;19.024;2023-06-01T12:03:48;100095.22;;;31.04;25.95
58775;BME280;44545;47.480;19.024;2023-06-01T12:07:03;100075.38;;;31.07;26.54
58775;BME280;44545;47.480;19.024;2023-06-01T12:10:09;100076.25;;;30.53;26.76
58775;BME280;44545;47.480;19.024;2023-06-01T12:13:13;100071.16;;;30.43;26.95
58775;BME280;44545;47.480;19.024;2023-06-01T12:16:16;100056.91;;;30.41;26.85
58775;BME280;44545;47.480;19.024;2023-06-01T12:19:25;100066.75;;;30.69;26.72
58775;BME280;44545;47.480;19.024;2023-06-01T12:22:30;100006.94;;;30.33;28.41
58775;BME280;44545;47.480;19.024;2023-06-01T12:25:34;100051.25;;;30.76;26.96
58775;BME280;44545;47.480;19.024;2023-06-01T12:28:49;100046.97;;;30.70;26.80
58775;BME280;44545;47.480;19.024;2023-06-01T12:31:59;100028.81;;;30.22;27.60
58775;BME280;44545;47.480;19.024;2023-06-01T12:35:03;100024.50;;;30.44;26.63
58775;BME280;44545;47.480;19.024;2023-06-01T12:38:07;100030.28;;;30.32;27.50
58775;BME280;44545;47.480;19.024;2023-06-01T12:41:12;99978.06;;;29.83;30.61
58775;BME280;44545;47.480;19.024;2023-06-01T12:44:19;99999.69;;;29.47;28.13
58775;BME280;44545;47.480;19.024;2023-06-01T12:47:22;99987.88;;;29.23;28.73
58775;BME280;44545;47.480;19.024;2023-06-01T12:50:24;99940.03;;;28.39;30.07
58775;BME280;44545;47.480;19.024;2023-06-01T12:53:28;100003.56;;;29.07;27.88
58775;BME280;44545;47.480;19.024;2023-06-01T12:56:30;100007.69;;;29.50;27.88
58775;BME280;44545;47.480;19.024;2023-06-01T12:59:35;99979.34;;;29.40;28.56
58775;BME280;44545;47.480;19.024;2023-06-01T13:02:37;100001.69;;;29.72;27.36
58775;BME280;44545;47.480;19.024;2023-06-01T13:05:43;99970.53;;;29.35;28.09
58775;BME280;44545;47.480;19.024;2023-06-01T13:08:48;99897.59;;;29.47;31.42
58775;BME280;44545;47.480;19.024;2023-06-01T13:11:51;99974.19;;;29.32;28.22
58775;BME280;44545;47.480;19.024;2023-06-01T13:14:53;99981.50;;;29.27;27.93
58775;BME280;44545;47.480;19.024;2023-06-01T13:17:58;99999.41;;;29.27;27.98
58775;BME280;44545;47.480;19.024;2023-06-01T13:21:00;99966.88;;;29.06;28.33
58775;BME280;44545;47.480;19.024;2023-06-01T13:24:05;99934.91;;;28.64;29.50
58775;BME280;44545;47.480;19.024;2023-06-01T13:27:07;99888.53;;;28.92;32.42
58775;BME280;44545;47.480;19.024;2023-06-01T13:30:10;99931.38;;;29.26;29.81
58775;BME280;44545;47.480;19.024;2023-06-01T13:33:12;99963.97;;;29.45;28.19
58775;BME280;44545;47.480;19.024;2023-06-01T13:36:15;99963.94;;;29.15;28.33
58775;BME280;44545;47.480;19.024;2023-06-01T13:39:18;99941.13;;;29.30;29.03
58775;BME280;44545;47.480;19.024;2023-06-01T13:42:21;99946.03;;;29.46;28.57
58775;BME280;44545;47.480;19.024;2023-06-01T13:45:23;99969.19;;;29.50;27.54
58775;BME280;44545;47.480;19.024;2023-06-01T13:48:26;99971.63;;;29.28;27.61
58775;BME280;44545;47.480;19.024;2023-06-01T13:51:28;99942.66;;;28.75;28.32
58775;BME280;44545;47.480;19.024;2023-06-01T13:54:31;99920.78;;;28.23;29.09
58775;BME280;44545;47.480;19.024;2023-06-01T13:57:33;99876.69;;;28.34;30.25
58775;BME280;44545;47.480;19.024;2023-06-01T14:00:36;99891.81;;;28.70;29.75
58775;BME280;44545;47.480;19.024;2023-06-01T14:03:38;99885.75;;;28.95;29.48
58775;BME280;44545;47.480;19.024;2023-06-01T14:06:41;99911.81;;;29.23;28.71
58775;BME280;44545;47.480;19.024;2023-06-01T14:09:44;99921.75;;;29.19;28.55
58775;BME280;44545;47.480;19.024;2023-06-01T14:12:46;99896.16;;;29.07;28.92
58775;BME280;44545;47.480;19.024;2023-06-01T14:15:48;99866.34;;;28.54;30.35
58775;BME280;44545;47.480;19.024;2023-06-01T14:18:51;99881.97;;;28.37;29.24
58775;BME280;44545;47.480;19.024;2023-06-01T14:21:53;99852.81;;;28.24;30.46
58775;BME280;44545;47.480;19.024;2023-06-01T14:24:55;99845.81;;;28.19;30.38
58775;BME280;44545;47.480;19.024;2023-06-01T14:27:58;99846.34;;;28.31;30.64
58775;BME280;44545;47.480;19.024;2023-06-01T14:31:00;99830.75;;;28.47;31.46
58775;BME280;44545;47.480;19.024;2023-06-01T14:34:03;99874.53;;;28.48;29.73
58775;BME280;44545;47.480;19.024;2023-06-01T14:37:06;99858.75;;;28.36;30.31
58775;BME280;44545;47.480;19.024;2023-06-01T14:40:12;99849.69;;;28.40;30.87
58775;BME280;44545;47.480;19.024;2023-06-01T14:43:15;99860.66;;;28.30;30.31
58775;BME280;44545;47.480;19.024;2023-06-01T14:46:17;99838.63;;;27.85;31.46
58775;BME280;44545;47.480;19.024;2023-06-01T14:49:22;99809.69;;;27.62;32.45
58775;BME280;44545;47.480;19.024;2023-06-01T14:52:33;99821.94;;;27.72;32.25
58775;BME280;44545;47.480;19.024;2023-06-01T14:55:35;99823.25;;;27.56;31.95
58775;BME280;44545;47.480;19.024;2023-06-01T14:58:38;99833.78;;;27.63;32.03
58775;BME280;44545;47.480;19.024;2023-06-01T15:01:40;99825.94;;;27.93;31.49
58775;BME280;44545;47.480;19.024;2023-06-01T15:04:43;99827.38;;;28.06;31.12
